Time;durP1;ratioP1;P1;durP2;ratioP2;P2;SDS_P1;SDS_P2;PMS_P1;PMS_P2;Temp;Humidity;BMP_temperature;BMP_pressure;BME280_temperature;BME280_humidity;BME280_pressure;Samples;Min_cycle;Max_cycle;Signal;HPM_P1;HPM_P2
2024/01/15 00:01:15;;;;;;;3.07;2.10;;;;;;;-5.57;100.00;96347.06;6190281;28;20201;-53
2024/01/15 00:04:17;;;;;;;4.37;2.33;;;;;;;-5.53;100.00;96345.75;6207117;28;20284;-53
2024/01/15 00:07:19;;;;;;;3.17;2.00;;;;;;;-5.52;100.00;96344.75;6203711;28;20215;-51
2024/01/15 00:10:23;;;;;;;5.20;2.50;;;;;;;-5.59;100.00;96333.47;6195000;28;20222;-54
2024/01/15 00:13:25;;;;;;;3.73;2.30;;;;;;;-5.50;100.00;96342.00;6187330;28;20308;-53
2024/01/15 00:16:27;;;;;;;5.13;2.83;;;;;;;-5.54;100.00;96335.53;6209672;28;20258;-52
2024/01/15 00:19:32;;;;;;;4.33;2.73;;;;;;;-5.60;100.00;96336.25;6203327;28;20229;-51
2024/01/15 00:22:35;;;;;;;4.97;3.23;;;;;;;-5.63;100.00;96336.59;6199452;28;20614;-52
2024/01/15 00:25:37;;;;;;;3.83;2.40;;;;;;;-5.64;100.00;96319.41;6192456;28;20202;-51
2024/01/15 00:28:39;;;;;;;6.70;3.23;;;;;;;-5.71;100.00;96298.56;6208791;28;20192;-53
2024/01/15 00:31:42;;;;;;;4.60;2.50;;;;;;;-5.75;100.00;96320.63;6190814;28;20272;-53
2024/01/15 00:34:44;;;;;;;5.43;2.90;;;;;;;-5.86;100.00;96300.28;6202895;28;20892;-52
2024/01/15 00:37:46;;;;;;;8.73;4.20;;;;;;;-5.78;100.00;96303.63;6191260;28;20617;-53
2024/01/15 00:40:49;;;;;;;7.23;3.90;;;;;;;-5.87;100.00;96262.38;6198337;28;20287;-52
2024/01/15 00:43:51;;;;;;;8.20;4.30;;;;;;;-5.57;100.00;96294.38;6189931;28;20271;-50
2024/01/15 00:46:53;;;;;;;6.03;3.27;;;;;;;-5.50;100.00;96290.91;6185683;28;20221;-51
2024/01/15 00:49:55;;;;;;;6.73;3.40;;;;;;;-5.43;100.00;96301.41;6194687;28;20209;-51
2024/01/15 00:52:57;;;;;;;5.77;3.17;;;;;;;-5.29;100.00;96297.22;6180816;28;20678;-51
2024/01/15 00:56:00;;;;;;;4.20;3.00;;;;;;;-5.41;100.00;96267.50;6207857;28;20245;-51
2024/01/15 00:59:02;;;;;;;5.70;3.30;;;;;;;-5.20;100.00;96284.00;6189871;28;20273;-51
2024/01/15 01:02:04;;;;;;;4.03;2.67;;;;;;;-5.15;100.00;96286.06;6197111;28;20282;-51
2024/01/15 01:05:07;;;;;;;5.07;2.77;;;;;;;-5.22;100.00;96260.00;6192474;28;20209;-53
2024/01/15 01:08:09;;;;;;;5.40;3.20;;;;;;;-5.04;100.00;96272.63;6196278;28;20234;-53
2024/01/15 01:11:15;;;;;;;4.37;2.90;;;;;;;-4.98;100.00;96282.28;6200836;28;20192;-52
2024/01/15 01:14:18;;;;;;;4.60;2.83;;;;;;;-4.91;100.00;96271.22;6183411;28;20233;-53
2024/01/15 01:17:20;;;;;;;4.43;2.63;;;;;;;-4.87;100.00;96265.47;6198887;28;20262;-52
2024/01/15 01:20:22;;;;;;;4.13;2.70;;;;;;;-4.83;100.00;96266.69;6195130;28;20676;-53
2024/01/15 01:23:24;;;;;;;4.77;3.00;;;;;;;-5.24;100.00;96202.25;6213814;28;20193;-50
2024/01/15 01:26:27;;;;;;;5.07;2.77;;;;;;;-4.72;100.00;96278.44;6184877;28;20213;-51
2024/01/15 01:29:29;;;;;;;4.80;2.57;;;;;;;-4.74;100.00;96270.03;6194734;28;20866;-52
2024/01/15 01:32:31;;;;;;;4.83;2.83;;;;;;;-4.68;100.00;96272.72;6192871;28;20194;-52
2024/01/15 01:35:33;;;;;;;4.07;2.43;;;;;;;-4.67;100.00;96268.31;6206274;28;20222;-54
2024/01/15 01:38:36;;;;;;;4.50;2.57;;;;;;;-4.68;100.00;96271.88;6185917;28;20314;-55
2024/01/15 01:41:40;;;;;;;4.63;2.47;;;;;;;-4.76;100.00;96261.63;6198387;28;20221;-54
2024/01/15 01:44:42;;;;;;;8.63;2.83;;;;;;;-4.72;100.00;96250.69;6195292;28;20595;-55
2024/01/15 01:47:44;;;;;;;3.83;2.57;;;;;;;-4.75;100.00;96251.03;6177752;28;20201;-55
2024/01/15 01:50:46;;;;;;;4.17;2.80;;;;;;;-4.73;100.00;96256.03;6206557;28;20202;-53
2024/01/15 01:53:49;;;;;;;4.33;2.80;;;;;;;-4.78;100.00;96245.38;6201304;28;20212;-53
2024/01/15 01:56:52;;;;;;;5.07;2.90;;;;;;;-4.70;100.00;96238.31;6197249;28;20308;-54
2024/01/15 01:59:55;;;;;;;5.30;3.10;;;;;;;-4.72;100.00;96206.53;6187012;28;20209;-53
2024/01/15 02:02:57;;;;;;;6.33;3.13;;;;;;;-4.56;100.00;96221.09;6192926;28;20815;-54
2024/01/15 02:06:00;;;;;;;6.30;3.60;;;;;;;-3.91;100.00;96201.91;6193831;28;20205;-52
2024/01/15 02:09:05;;;;;;;6.23;3.73;;;;;;;-4.03;100.00;96198.22;6194587;28;20270;-53
2024/01/15 02:12:07;;;;;;;5.37;3.20;;;;;;;-4.22;100.00;96198.84;6193024;28;20276;-53
2024/01/15 02:15:09;;;;;;;4.97;2.70;;;;;;;-4.20;100.00;96199.44;6195751;28;20186;-56
2024/01/15 02:18:12;;;;;;;5.90;2.70;;;;;;;-4.25;100.00;96202.59;6202925;28;20793;-53
2024/01/15 02:21:15;;;;;;;4.50;2.80;;;;;;;-4.44;100.00;96177.22;6197976;28;20577;-52
2024/01/15 02:24:18;;;;;;;4.97;3.27;;;;;;;-4.32;100.00;96208.75;6177382;28;20198;-55
2024/01/15 02:27:20;;;;;;;5.70;3.00;;;;;;;-4.47;100.00;96154.22;6199988;28;20214;-54
2024/01/15 02:30:25;;;;;;;6.20;3.07;;;;;;;-4.07;100.00;96190.97;6216409;28;20208;-55
2024/01/15 02:33:27;;;;;;;3.63;2.87;;;;;;;-4.08;100.00;96202.38;6194170;28;20285;-52
2024/01/15 02:36:30;;;;;;;7.20;3.70;;;;;;;-4.04;100.00;96194.03;6196531;28;20774;-53
2024/01/15 02:39:32;;;;;;;6.37;3.43;;;;;;;-4.03;100.00;96200.03;6191087;28;20759;-55
2024/01/15 02:42:35;;;;;;;5.70;3.57;;;;;;;-4.02;100.00;96204.22;6192504;28;20667;-53
2024/01/15 02:45:37;;;;;;;6.67;3.70;;;;;;;-4.04;100.00;96190.59;6182011;28;20205;-53
2024/01/15 02:48:39;;;;;;;6.70;3.43;;;;;;;-4.08;100.00;96200.56;6184581;28;20549;-52
2024/01/15 02:51:42;;;;;;;6.50;3.03;;;;;;;-4.13;100.00;96196.94;6194664;28;20209;-52
2024/01/15 02:54:44;;;;;;;5.10;3.07;;;;;;;-4.18;100.00;96193.09;6205606;28;20196;-52
2024/01/15 02:57:46;;;;;;;4.57;2.57;;;;;;;-4.28;100.00;96178.78;6199801;28;20675;-53
2024/01/15 03:00:48;;;;;;;5.03;2.97;;;;;;;-4.11;100.00;96198.34;6184874;28;20759;-54
2024/01/15 03:03:51;;;;;;;12.50;6.10;;;;;;;-4.13;100.00;96204.72;6195364;28;20198;-54
2024/01/15 03:06:53;;;;;;;8.00;4.33;;;;;;;-4.17;100.00;96192.09;6195850;28;20732;-55
2024/01/15 03:09:55;;;;;;;7.87;4.20;;;;;;;-3.39;98.46;96205.13;6211820;28;20661;-54
2024/01/15 03:12:57;;;;;;;7.30;4.50;;;;;;;-3.11;97.29;96210.28;6209970;28;20201;-56
2024/01/15 03:16:00;;;;;;;8.47;4.50;;;;;;;-1.59;85.65;96200.22;6197356;28;20194;-54
2024/01/15 03:19:02;;;;;;;8.47;4.63;;;;;;;-1.39;82.12;96202.03;6195045;28;20203;-53
2024/01/15 03:22:04;;;;;;;8.00;4.77;;;;;;;-1.00;80.06;96210.81;6207646;28;20189;-56
2024/01/15 03:25:07;;;;;;;8.93;4.17;;;;;;;-0.97;79.02;96195.53;6206996;28;20575;-52
2024/01/15 03:28:09;;;;;;;8.77;4.57;;;;;;;-0.93;80.26;96212.41;6196250;28;20213;-54
2024/01/15 03:31:11;;;;;;;7.67;4.60;;;;;;;-1.14;80.07;96178.66;6197775;28;20197;-57
2024/01/15 03:34:13;;;;;;;7.37;4.43;;;;;;;-1.59;81.79;96152.44;6203402;28;20208;-55
2024/01/15 03:37:15;;;;;;;8.20;4.57;;;;;;;-1.48;84.33;96221.50;6207196;28;20228;-51
2024/01/15 03:40:18;;;;;;;5.17;3.47;;;;;;;-1.75;86.38;96226.75;6201534;28;20321;-53
2024/01/15 03:43:24;;;;;;;7.40;4.30;;;;;;;-1.95;88.34;96215.50;6199014;28;20724;-55
2024/01/15 03:46:26;;;;;;;6.13;4.30;;;;;;;-1.93;89.27;96235.16;6188847;28;20217;-55
2024/01/15 03:49:28;;;;;;;9.47;5.50;;;;;;;-1.04;82.31;96226.88;6205282;28;20192;-56
2024/01/15 03:52:30;;;;;;;7.77;4.87;;;;;;;-0.66;79.85;96214.91;6201835;28;20198;-55
2024/01/15 03:55:33;;;;;;;7.63;4.70;;;;;;;-0.43;78.56;96207.38;6200068;28;20257;-55
2024/01/15 03:58:35;;;;;;;10.37;5.63;;;;;;;-0.29;79.03;96197.66;6174539;28;20232;-56
2024/01/15 04:01:37;;;;;;;9.87;5.90;;;;;;;-0.10;78.66;96203.78;6204832;28;20279;-55
2024/01/15 04:04:43;;;;;;;10.27;5.80;;;;;;;0.20;78.05;96186.47;6207369;28;20205;-56
2024/01/15 04:07:45;;;;;;;7.57;5.57;;;;;;;0.06;78.62;96190.19;6198028;28;20213;-55
2024/01/15 04:10:48;;;;;;;8.43;5.37;;;;;;;-0.06;78.42;96202.34;6188856;28;20190;-54
2024/01/15 04:13:50;;;;;;;8.37;5.27;;;;;;;0.52;72.60;96181.16;6201015;28;20207;-55
2024/01/15 04:16:52;;;;;;;7.50;4.83;;;;;;;0.38;74.03;96170.00;6206360;28;20197;-56
2024/01/15 04:19:55;;;;;;;7.50;4.67;;;;;;;0.33;74.31;96169.84;6200593;28;20569;-55
2024/01/15 04:22:57;;;;;;;7.60;5.00;;;;;;;0.31;73.58;96174.50;6195317;28;20210;-54
2024/01/15 04:25:59;;;;;;;7.60;4.70;;;;;;;0.19;74.93;96181.44;6155298;28;20210;-56
2024/01/15 04:29:01;;;;;;;6.13;4.00;;;;;;;-0.06;77.51;96181.41;6210533;28;20571;-53
2024/01/15 04:32:03;;;;;;;7.77;5.13;;;;;;;-0.30;77.61;96177.72;6182452;28;20205;-56
2024/01/15 04:35:06;;;;;;;6.03;4.17;;;;;;;-0.45;78.45;96187.66;6199051;28;20570;-56
2024/01/15 04:38:09;;;;;;;7.23;4.53;;;;;;;-0.04;75.17;96172.34;6198009;28;20227;-56
2024/01/15 04:41:16;;;;;;;6.20;4.47;;;;;;;0.48;70.81;96178.16;6195237;28;20255;-55
2024/01/15 04:44:19;;;;;;;9.27;4.90;;;;;;;0.40;71.70;96178.44;6202645;28;20201;-54
2024/01/15 04:47:21;;;;;;;6.30;4.20;;;;;;;0.37;73.44;96204.25;6200005;28;20209;-56
2024/01/15 04:50:23;;;;;;;6.07;4.50;;;;;;;0.28;73.42;96189.81;6194736;28;20201;-56
2024/01/15 04:53:25;;;;;;;9.27;5.70;;;;;;;0.60;71.69;96216.78;6195237;28;20563;-56
2024/01/15 04:56:27;;;;;;;7.87;4.67;;;;;;;0.34;73.08;96212.53;6204529;28;20205;-55
2024/01/15 04:59:29;;;;;;;8.13;5.17;;;;;;;0.20;74.76;96202.19;6185802;28;20254;-55
2024/01/15 05:02:32;;;;;;;7.40;5.30;;;;;;;0.09;75.68;96233.47;6195197;28;20197;-54
2024/01/15 05:05:34;;;;;;;8.23;5.50;;;;;;;0.19;74.17;96170.94;6191896;28;20217;-56
2024/01/15 05:08:36;;;;;;;10.33;6.30;;;;;;;0.25;74.30;96240.81;6204592;28;20205;-56
2024/01/15 05:11:38;;;;;;;11.00;6.07;;;;;;;0.33;73.66;96213.56;6202961;28;20201;-56
2024/01/15 05:14:41;;;;;;;9.87;5.70;;;;;;;-0.02;74.06;96234.94;6194408;28;20537;-56
2024/01/15 05:17:43;;;;;;;8.80;5.40;;;;;;;0.07;75.27;96252.00;6192782;28;20196;-56
2024/01/15 05:20:45;;;;;;;9.30;6.30;;;;;;;-0.03;74.85;96262.94;6195431;28;20208;-54
2024/01/15 05:23:47;;;;;;;9.53;5.70;;;;;;;-0.04;75.76;96258.72;6205456;28;20833;-56
2024/01/15 05:26:49;;;;;;;10.00;5.87;;;;;;;0.10;74.28;96248.97;6199916;28;20324;-54
2024/01/15 05:29:52;;;;;;;9.43;5.70;;;;;;;-0.28;75.01;96257.63;6193914;28;20238;-55
2024/01/15 05:32:54;;;;;;;7.97;5.03;;;;;;;-0.27;76.10;96297.66;6187972;28;20197;-57
2024/01/15 05:35:58;;;;;;;11.57;7.00;;;;;;;-0.37;76.89;96284.22;6205176;28;20192;-57
2024/01/15 05:39:00;;;;;;;11.63;6.27;;;;;;;-0.28;76.09;96296.06;6203320;28;20209;-56
2024/01/15 05:42:02;;;;;;;11.27;6.63;;;;;;;-0.50;76.91;96298.16;6190523;28;20202;-57
2024/01/15 05:45:05;;;;;;;9.63;6.63;;;;;;;-0.60;77.78;96295.97;6189218;28;20193;-55
2024/01/15 05:48:08;;;;;;;11.20;6.83;;;;;;;-0.73;78.90;96297.81;6206148;28;20221;-56
2024/01/15 05:51:10;;;;;;;11.63;7.87;;;;;;;-0.97;80.23;96287.00;6204654;28;20189;-55
2024/01/15 05:54:12;;;;;;;15.30;8.47;;;;;;;-0.93;80.11;96313.53;6196470;28;20689;-56
2024/01/15 05:57:15;;;;;;;12.33;7.50;;;;;;;-1.04;80.56;96325.38;6177170;28;20194;-56
2024/01/15 06:00:17;;;;;;;11.77;7.73;;;;;;;-1.04;80.56;96338.44;6193953;28;20236;-54
2024/01/15 06:03:19;;;;;;;15.57;8.30;;;;;;;-1.17;81.00;96320.97;6204692;28;20232;-55
2024/01/15 06:06:22;;;;;;;12.93;7.57;;;;;;;-1.09;80.96;96318.16;6194769;28;20768;-53
2024/01/15 06:09:24;;;;;;;13.90;8.30;;;;;;;-1.19;81.89;96315.13;6194290;28;20196;-57
2024/01/15 06:12:27;;;;;;;14.97;8.77;;;;;;;-1.05;80.51;96311.53;6192035;28;20266;-52
2024/01/15 06:15:29;;;;;;;13.83;8.60;;;;;;;-1.13;81.09;96308.34;6216631;28;20192;-56
2024/01/15 06:18:32;;;;;;;12.90;8.37;;;;;;;-1.18;81.53;96292.44;6202919;28;20200;-50
2024/01/15 06:21:34;;;;;;;14.93;8.67;;;;;;;-1.12;81.19;96302.91;6200060;28;20660;-54
2024/01/15 06:24:36;;;;;;;14.03;8.07;;;;;;;-1.20;82.63;96287.41;6198309;28;20197;-56
2024/01/15 06:27:38;;;;;;;12.07;7.50;;;;;;;-1.39;83.07;96285.59;6206944;28;20871;-55
2024/01/15 06:30:40;;;;;;;16.17;9.20;;;;;;;-1.04;80.92;96278.34;6208780;28;20227;-58
2024/01/15 06:33:43;;;;;;;12.33;8.10;;;;;;;-1.13;81.63;96261.28;6182217;28;20288;-57
2024/01/15 06:36:45;;;;;;;9.33;6.40;;;;;;;-0.76;79.10;96265.03;6199575;28;20700;-58
2024/01/15 06:39:47;;;;;;;12.00;6.73;;;;;;;-0.89;79.65;96265.06;6199009;28;20201;-57
2024/01/15 06:42:50;;;;;;;11.33;6.60;;;;;;;-0.99;82.20;96268.09;6223160;28;20193;-57
2024/01/15 06:45:54;;;;;;;10.40;5.93;;;;;;;-0.81;79.04;96281.31;6201046;28;20201;-59
2024/01/15 06:48:57;;;;;;;9.87;6.30;;;;;;;-0.73;77.52;96274.28;6183046;28;20795;-54
2024/01/15 06:51:59;;;;;;;8.70;5.90;;;;;;;-0.68;77.72;96292.78;6195451;28;20656;-55
2024/01/15 06:55:01;;;;;;;11.13;6.50;;;;;;;-0.74;78.21;96291.75;6209957;28;20200;-58
2024/01/15 06:58:04;;;;;;;10.43;5.93;;;;;;;-0.77;77.31;96313.09;6188378;28;20715;-57
2024/01/15 07:01:06;;;;;;;8.90;5.60;;;;;;;-0.82;76.71;96281.53;6194358;28;20851;-57
2024/01/15 07:04:08;;;;;;;8.80;5.60;;;;;;;-0.72;77.98;96318.53;6197921;28;20204;-55
2024/01/15 07:07:10;;;;;;;8.43;5.33;;;;;;;-0.44;74.53;96312.22;6204168;28;20243;-59
2024/01/15 07:10:13;;;;;;;8.20;5.27;;;;;;;-0.28;73.60;96328.28;6208972;28;20208;-55
2024/01/15 07:13:15;;;;;;;8.43;4.80;;;;;;;-0.46;75.09;96324.69;6200467;28;20671;-58
2024/01/15 07:16:17;;;;;;;6.63;4.27;;;;;;;-0.24;72.68;96312.16;6197066;28;20660;-56
2024/01/15 07:19:38;;;;;;;5.47;4.13;;;;;;;-0.28;72.62;96307.34;6180259;28;20201;-57
2024/01/15 07:22:40;;;;;;;6.40;4.87;;;;;;;-0.35;72.48;96293.47;6211868;28;20267;-55
2024/01/15 07:25:43;;;;;;;6.10;3.93;;;;;;;-0.30;72.83;96303.31;6208827;28;20244;-56
2024/01/15 07:28:45;;;;;;;7.43;4.10;;;;;;;-0.28;72.48;96285.59;6179335;28;20211;-54
2024/01/15 07:31:51;;;;;;;7.77;4.53;;;;;;;-0.28;71.86;96307.34;6178321;28;20204;-56
2024/01/15 07:34:54;;;;;;;5.80;3.60;;;;;;;-0.14;71.77;96305.47;6205901;28;20209;-55
2024/01/15 07:37:56;;;;;;;5.87;3.90;;;;;;;-0.01;70.65;96333.41;6204737;28;20687;-56
2024/01/15 07:40:59;;;;;;;6.73;3.87;;;;;;;0.07;70.80;96317.47;6198455;28;20203;-53
2024/01/15 07:44:02;;;;;;;7.33;3.80;;;;;;;0.02;70.66;96321.72;6192956;28;20229;-56
2024/01/15 07:47:04;;;;;;;5.53;3.40;;;;;;;0.10;70.20;96314.44;6196437;28;20333;-54
2024/01/15 07:50:06;;;;;;;5.10;3.70;;;;;;;0.07;70.45;96312.22;6208844;28;20201;-54
2024/01/15 07:53:09;;;;;;;5.10;3.77;;;;;;;0.07;70.45;96314.03;6202285;28;20200;-56
2024/01/15 07:56:11;;;;;;;4.53;3.17;;;;;;;0.03;71.80;96331.16;6191569;28;20198;-54
2024/01/15 07:59:13;;;;;;;5.80;3.70;;;;;;;-0.06;71.65;96296.56;6193391;28;20189;-56
2024/01/15 08:02:15;;;;;;;6.40;3.67;;;;;;;0.02;72.68;96309.44;6210458;28;20451;-57
2024/01/15 08:05:17;;;;;;;7.97;3.67;;;;;;;0.03;73.13;96315.47;6201061;28;20318;-54
2024/01/15 08:08:21;;;;;;;5.27;4.03;;;;;;;0.13;71.94;96321.06;6206680;28;20250;-57
2024/01/15 08:11:23;;;;;;;6.80;3.90;;;;;;;0.17;72.68;96311.78;6186423;28;20197;-54
2024/01/15 08:14:25;;;;;;;5.80;3.83;;;;;;;0.34;71.49;96314.69;6184605;28;20229;-56
2024/01/15 08:17:28;;;;;;;5.63;4.00;;;;;;;0.34;72.24;96304.22;6184417;28;20260;-53
2024/01/15 08:20:30;;;;;;;6.63;3.83;;;;;;;0.28;71.65;96318.16;6192719;28;20324;-57
2024/01/15 08:23:34;;;;;;;4.60;3.43;;;;;;;0.24;71.79;96315.13;6192655;28;20193;-53
2024/01/15 08:26:37;;;;;;;4.50;3.40;;;;;;;-0.19;73.48;96267.88;6197722;28;20678;-57
2024/01/15 08:29:39;;;;;;;5.30;3.43;;;;;;;0.05;72.34;96293.31;6207272;28;20197;-56
2024/01/15 08:32:42;;;;;;;6.03;3.70;;;;;;;0.47;69.60;96298.91;6194591;28;20688;-57
2024/01/15 08:35:45;;;;;;;4.87;3.10;;;;;;;0.06;72.62;96279.22;6198667;28;20602;-53
2024/01/15 08:38:47;;;;;;;5.37;3.23;;;;;;;0.27;71.03;96292.97;6163231;28;20186;-54
2024/01/15 08:41:50;;;;;;;4.77;3.30;;;;;;;0.18;71.67;96284.56;6205478;28;20672;-55
2024/01/15 08:44:52;;;;;;;4.43;3.00;;;;;;;0.41;69.98;96289.28;6206475;28;20696;-57
2024/01/15 08:47:54;;;;;;;4.93;3.13;;;;;;;0.25;70.85;96291.38;6200388;28;20205;-55
2024/01/15 08:50:56;;;;;;;6.53;3.20;;;;;;;0.44;69.68;96291.44;6196025;28;20258;-55
2024/01/15 08:53:59;;;;;;;5.97;2.87;;;;;;;0.60;69.18;96314.53;6196251;28;20658;-56
2024/01/15 08:57:01;;;;;;;3.17;2.43;;;;;;;0.73;69.02;96314.41;6197118;28;20671;-57
2024/01/15 09:00:08;;;;;;;6.17;2.87;;;;;;;0.62;68.52;96296.78;6197815;28;20665;-56
2024/01/15 09:03:10;;;;;;;5.40;2.97;;;;;;;0.77;68.43;96296.47;6166787;28;20197;-56
2024/01/15 09:06:12;;;;;;;3.10;2.50;;;;;;;0.96;66.15;96295.50;6180024;28;20575;-57
2024/01/15 09:09:15;;;;;;;4.43;2.47;;;;;;;1.01;68.52;96295.66;6202084;28;20282;-56
2024/01/15 09:12:18;;;;;;;3.60;2.30;;;;;;;0.95;67.42;96306.19;6201897;28;20271;-56
2024/01/15 09:15:20;;;;;;;3.43;2.47;;;;;;;1.01;65.68;96305.34;6196458;28;20203;-54
2024/01/15 09:18:22;;;;;;;3.83;2.50;;;;;;;1.11;65.15;96300.41;6208245;28;20717;-54
2024/01/15 09:21:25;;;;;;;2.90;2.10;;;;;;;0.87;66.07;96290.72;6202248;28;20201;-55
2024/01/15 09:24:27;;;;;;;3.53;2.47;;;;;;;0.94;66.73;96294.13;6188637;28;20574;-54
2024/01/15 09:27:30;;;;;;;4.20;2.90;;;;;;;0.78;67.02;96304.09;6198214;28;20209;-54
2024/01/15 09:30:33;;;;;;;3.53;2.40;;;;;;;0.84;66.76;96302.47;6195322;28;20327;-54
2024/01/15 09:33:35;;;;;;;2.73;1.90;;;;;;;0.52;65.48;96244.84;6208543;28;20671;-56
2024/01/15 09:36:42;;;;;;;2.97;2.27;;;;;;;0.85;65.54;96303.25;6197356;28;20231;-56
2024/01/15 09:39:44;;;;;;;2.63;2.00;;;;;;;0.68;68.12;96301.16;6195296;28;20197;-55
2024/01/15 09:42:47;;;;;;;3.77;2.80;;;;;;;0.92;67.15;96309.25;6190652;28;20193;-55
2024/01/15 09:45:51;;;;;;;2.90;2.60;;;;;;;1.00;66.70;96301.91;6196844;28;20185;-57
2024/01/15 09:48:53;;;;;;;4.33;2.60;;;;;;;0.99;68.58;96300.31;6203840;28;20254;-53
2024/01/15 09:51:58;;;;;;;3.57;2.37;;;;;;;1.12;68.47;96304.63;6203370;28;20580;-56
2024/01/15 09:55:13;;;;;;;3.63;2.40;;;;;;;1.02;67.30;96249.25;6198454;28;20189;-56
2024/01/15 09:58:15;;;;;;;3.17;2.70;;;;;;;1.55;65.94;96288.06;6193414;28;20205;-55
2024/01/15 10:01:19;;;;;;;4.57;2.20;;;;;;;1.65;66.28;96271.81;6201535;28;20212;-56
2024/01/15 10:04:23;;;;;;;4.33;2.57;;;;;;;1.61;64.99;96258.31;6203473;28;20190;-55
2024/01/15 10:07:26;;;;;;;4.17;2.40;;;;;;;1.51;65.73;96242.28;6202304;28;20209;-57
2024/01/15 10:10:28;;;;;;;4.00;2.90;;;;;;;1.76;66.04;96271.84;6198749;28;20204;-55
2024/01/15 10:13:31;;;;;;;3.13;2.43;;;;;;;1.61;65.71;96284.56;6204495;28;20193;-55
2024/01/15 10:16:33;;;;;;;3.57;2.57;;;;;;;1.63;64.40;96266.78;6209154;28;20194;-55
2024/01/15 10:19:35;;;;;;;3.23;2.67;;;;;;;1.73;64.55;96267.06;6196853;28;20283;-57
2024/01/15 10:22:46;;;;;;;4.23;2.60;;;;;;;1.66;66.06;96273.41;6192626;28;20695;-56
2024/01/15 10:25:48;;;;;;;3.97;2.30;;;;;;;1.51;66.50;96273.75;6193804;28;20220;-57
2024/01/15 10:28:52;;;;;;;3.90;2.83;;;;;;;1.55;66.18;96240.81;6205000;28;20756;-56
2024/01/15 10:31:54;;;;;;;3.37;2.70;;;;;;;1.51;66.42;96258.03;6198198;28;20287;-55
2024/01/15 10:34:57;;;;;;;3.80;2.73;;;;;;;1.48;68.03;96251.41;6199640;28;20190;-57
2024/01/15 10:38:03;;;;;;;3.70;2.40;;;;;;;1.41;68.31;96250.66;6196107;28;20308;-55
2024/01/15 10:41:05;;;;;;;3.03;2.30;;;;;;;1.31;70.27;96260.88;6191735;28;20202;-55
2024/01/15 10:44:07;;;;;;;6.43;3.00;;;;;;;1.49;67.72;96275.81;6207429;28;20862;-56
2024/01/15 10:47:11;;;;;;;5.73;3.10;;;;;;;0.99;69.01;96207.75;6202929;28;20201;-57
2024/01/15 10:50:13;;;;;;;4.20;2.83;;;;;;;1.38;69.27;96266.03;6195276;28;20653;-56
2024/01/15 10:53:17;;;;;;;3.27;2.70;;;;;;;1.00;71.26;96239.00;6203528;28;20668;-57
2024/01/15 10:56:21;;;;;;;4.20;2.73;;;;;;;1.17;70.25;96289.03;6206364;28;20777;-56
2024/01/15 10:59:24;;;;;;;4.03;2.93;;;;;;;1.18;71.45;96295.09;6199966;28;20186;-56
2024/01/15 11:02:27;;;;;;;5.10;3.10;;;;;;;1.07;70.47;96288.72;6195319;28;20204;-56
2024/01/15 11:05:33;;;;;;;4.17;2.70;;;;;;;1.20;70.76;96293.06;6197799;28;20196;-55
2024/01/15 11:08:36;;;;;;;4.27;2.80;;;;;;;1.07;70.77;96274.81;6207736;28;20568;-58
2024/01/15 11:11:49;;;;;;;4.67;2.80;;;;;;;1.07;73.75;96301.84;6216825;28;20615;-55
2024/01/15 11:14:54;;;;;;;4.57;2.93;;;;;;;1.08;72.79;96285.09;6191056;28;20201;-56
2024/01/15 11:18:05;;;;;;;4.47;3.27;;;;;;;1.13;73.11;96293.09;6191029;28;20214;-55
2024/01/15 11:21:16;;;;;;;4.03;2.83;;;;;;;1.01;75.63;96271.25;6190390;28;20205;-57
2024/01/15 11:24:40;;;;;;;5.83;3.00;;;;;;;0.96;77.25;96278.97;6198739;28;21006;-55
2024/01/15 11:27:52;;;;;;;3.80;3.00;;;;;;;1.01;77.19;96266.81;6196002;28;20591;-54
2024/01/15 11:30:55;;;;;;;2.93;2.50;;;;;;;0.88;80.69;96266.13;6194268;28;20247;-56
2024/01/15 11:33:59;;;;;;;5.03;3.03;;;;;;;0.90;76.72;96254.41;6181206;28;20220;-57
2024/01/15 11:37:03;;;;;;;3.90;2.80;;;;;;;0.91;77.47;96276.19;6204260;28;20276;-57
2024/01/15 11:40:12;;;;;;;5.03;2.67;;;;;;;0.83;78.13;96266.75;6195535;28;20615;-55
2024/01/15 11:43:17;;;;;;;4.10;3.00;;;;;;;1.11;76.17;96262.88;6194903;28;20223;-56
2024/01/15 11:46:19;;;;;;;3.67;2.60;;;;;;;0.93;77.80;96253.16;6203194;28;20189;-56
2024/01/15 11:49:47;;;;;;;4.73;2.93;;;;;;;1.05;77.86;96259.31;6210999;28;20658;-57
2024/01/15 11:53:01;;;;;;;4.27;3.13;;;;;;;1.08;77.13;96255.44;6176824;28;20218;-57
2024/01/15 11:56:16;;;;;;;3.03;2.27;;;;;;;1.06;77.68;96245.19;6192021;28;20197;-56
2024/01/15 11:59:19;;;;;;;3.20;2.27;;;;;;;0.98;78.73;96234.97;6197440;28;20665;-57
2024/01/15 12:02:21;;;;;;;3.57;2.30;;;;;;;1.03;79.27;96233.31;6198425;28;20196;-56
2024/01/15 12:05:24;;;;;;;5.03;2.20;;;;;;;1.09;77.73;96234.28;6196285;28;20292;-57
2024/01/15 12:08:27;;;;;;;3.33;2.50;;;;;;;1.00;76.53;96225.88;6191257;28;20236;-55
2024/01/15 12:11:34;;;;;;;2.43;2.10;;;;;;;1.07;76.67;96211.88;6192252;28;20186;-55
2024/01/15 12:14:38;;;;;;;2.73;2.23;;;;;;;0.81;78.45;96205.09;6206230;28;20284;-56
2024/01/15 12:17:41;;;;;;;3.70;2.30;;;;;;;0.61;80.60;96172.00;6202097;28;20284;-56
2024/01/15 12:20:46;;;;;;;3.20;2.37;;;;;;;0.90;76.65;96161.84;6192316;28;20195;-55
2024/01/15 12:23:49;;;;;;;4.17;2.17;;;;;;;0.81;77.35;96173.66;6198311;28;20216;-53
2024/01/15 12:26:51;;;;;;;3.10;2.20;;;;;;;0.69;76.70;96158.66;6203361;28;20326;-56
2024/01/15 12:29:54;;;;;;;4.73;2.07;;;;;;;0.72;77.90;96173.13;6208579;28;20228;-57
2024/01/15 12:32:56;;;;;;;2.80;1.73;;;;;;;0.63;75.53;96146.38;6192573;28;20358;-55
2024/01/15 12:35:58;;;;;;;2.57;1.60;;;;;;;0.62;76.63;96162.34;6172229;28;20205;-58
2024/01/15 12:39:00;;;;;;;2.50;1.90;;;;;;;0.79;73.58;96168.63;6192555;28;20194;-56
2024/01/15 12:42:04;;;;;;;3.03;2.07;;;;;;;0.50;74.93;96131.63;6202733;28;20225;-57
2024/01/15 12:45:06;;;;;;;2.70;1.57;;;;;;;0.75;73.92;96175.31;6198712;28;20201;-57
2024/01/15 12:48:09;;;;;;;4.47;1.67;;;;;;;0.93;71.61;96167.44;6198694;28;20239;-57
2024/01/15 12:51:11;;;;;;;2.10;1.53;;;;;;;0.86;71.86;96169.34;6192210;28;20213;-55
2024/01/15 12:54:13;;;;;;;2.30;1.93;;;;;;;1.05;68.61;96166.75;6188562;28;20201;-56
2024/01/15 12:57:16;;;;;;;3.63;1.60;;;;;;;1.03;70.01;96151.22;6202115;28;20271;-57
2024/01/15 13:00:19;;;;;;;2.60;1.70;;;;;;;1.00;69.72;96143.78;6199104;28;20201;-56
2024/01/15 13:03:22;;;;;;;3.03;1.80;;;;;;;1.10;68.63;96165.06;6177822;28;20193;-56
2024/01/15 13:06:25;;;;;;;2.00;1.80;;;;;;;1.19;67.69;96174.25;6197188;28;20267;-56
2024/01/15 13:09:27;;;;;;;2.43;1.80;;;;;;;1.03;68.11;96145.97;6207142;28;20215;-56
2024/01/15 13:12:29;;;;;;;2.23;1.60;;;;;;;1.19;70.05;96187.34;6198913;28;20292;-55
2024/01/15 13:15:31;;;;;;;4.57;2.03;;;;;;;1.16;67.28;96176.50;6193863;28;20194;-56
2024/01/15 13:18:34;;;;;;;2.73;1.90;;;;;;;1.13;68.01;96169.06;6192723;28;20192;-57
2024/01/15 13:21:37;;;;;;;3.57;1.57;;;;;;;1.24;69.31;96191.94;6200332;28;20189;-56
2024/01/15 13:24:40;;;;;;;2.80;1.80;;;;;;;1.22;67.19;96186.91;6201968;28;20193;-57
2024/01/15 13:27:42;;;;;;;2.73;1.97;;;;;;;1.08;68.24;96179.41;6198508;28;20213;-57
2024/01/15 13:30:44;;;;;;;3.73;2.30;;;;;;;1.10;67.14;96156.41;6193353;28;20565;-55
2024/01/15 13:33:46;;;;;;;2.67;1.90;;;;;;;1.03;70.06;96148.59;6203899;28;20212;-56
2024/01/15 13:36:49;;;;;;;2.00;1.80;;;;;;;0.96;70.68;96146.03;6205597;28;20311;-56
2024/01/15 13:39:53;;;;;;;2.20;1.90;;;;;;;0.83;71.61;96154.03;6201616;28;20689;-57
2024/01/15 13:42:55;;;;;;;2.20;1.77;;;;;;;0.84;71.12;96157.47;6175705;28;20193;-56
2024/01/15 13:45:59;;;;;;;2.57;1.60;;;;;;;1.14;66.03;96166.22;6196341;28;20196;-57
2024/01/15 13:49:02;;;;;;;2.63;1.70;;;;;;;1.08;66.93;96158.41;6185647;28;20221;-54
2024/01/15 13:52:04;;;;;;;2.40;1.80;;;;;;;0.88;69.11;96175.16;6200336;28;20565;-54
2024/01/15 13:55:08;;;;;;;2.60;1.80;;;;;;;0.91;69.53;96147.72;6194697;28;20205;-55
2024/01/15 13:58:12;;;;;;;3.40;1.67;;;;;;;0.81;67.45;96181.50;6191366;28;20490;-55
2024/01/15 14:01:15;;;;;;;2.67;1.80;;;;;;;0.68;68.88;96161.47;6219144;28;20205;-57
2024/01/15 14:04:18;;;;;;;2.47;1.80;;;;;;;0.94;66.30;96176.13;6203533;28;20703;-57
2024/01/15 14:07:21;;;;;;;1.43;1.30;;;;;;;0.76;68.29;96142.84;6187134;28;20677;-55
2024/01/15 14:10:23;;;;;;;4.27;2.10;;;;;;;0.68;66.24;96140.50;6191257;28;20670;-57
2024/01/15 14:13:25;;;;;;;2.33;1.83;;;;;;;0.92;67.09;96167.66;6213027;28;20197;-56
2024/01/15 14:16:27;;;;;;;2.83;2.00;;;;;;;0.85;67.64;96157.25;6188576;28;20738;-57
2024/01/15 14:19:29;;;;;;;2.87;1.97;;;;;;;0.77;67.97;96158.34;6195392;28;20274;-57
2024/01/15 14:22:32;;;;;;;2.97;1.70;;;;;;;0.67;67.93;96167.72;6177038;28;20673;-57